createdAt,value
2023-05-10T00:00:25.017Z,364
2023-05-10T00:01:26.707Z,365
2023-05-10T00:02:24.259Z,368
2023-05-10T00:03:23.885Z,365
2023-05-10T00:04:23.954Z,362
2023-05-10T00:05:24.337Z,367
2023-05-10T00:06:24.264Z,368
2023-05-10T00:08:23.781Z,369
2023-05-10T00:09:24.073Z,368
2023-05-10T00:10:24.563Z,366
2023-05-10T00:11:24.555Z,368
2023-05-10T00:13:24.267Z,365
2023-05-10T00:14:24.213Z,368
2023-05-10T00:15:24.154Z,365
2023-05-10T00:16:24.020Z,372
2023-05-10T00:17:24.286Z,368
2023-05-10T00:18:24.183Z,358
2023-05-10T00:19:24.358Z,361
2023-05-10T00:20:23.954Z,352
2023-05-10T00:21:24.049Z,360
2023-05-10T00:22:24.203Z,363
2023-05-10T00:23:24.637Z,359
2023-05-10T00:24:23.758Z,358
2023-05-10T00:25:24.345Z,349
2023-05-10T00:26:24.229Z,359
2023-05-10T00:27:24.021Z,370
2023-05-10T00:28:24.296Z,369
2023-05-10T00:29:24.178Z,359
2023-05-10T00:30:24.121Z,356
2023-05-10T00:31:37.927Z,365
2023-05-10T00:32:24.070Z,366
2023-05-10T00:33:24.169Z,362
2023-05-10T00:34:24.289Z,370
2023-05-10T00:35:24.115Z,375
2023-05-10T00:36:24.139Z,362
2023-05-10T00:37:23.932Z,359
2023-05-10T00:38:24.032Z,357
2023-05-10T00:40:24.292Z,360
2023-05-10T00:41:23.923Z,358
2023-05-10T00:42:24.243Z,359
2023-05-10T00:43:24.016Z,363
2023-05-10T00:44:24.018Z,372
2023-05-10T00:45:24.325Z,370
2023-05-10T00:46:24.470Z,365
2023-05-10T00:47:24.652Z,367
2023-05-10T00:48:24.560Z,366
2023-05-10T00:49:24.454Z,359
2023-05-10T00:52:23.780Z,370
2023-05-10T00:53:23.967Z,367
2023-05-10T00:54:24.076Z,356
2023-05-10T00:55:24.175Z,360
2023-05-10T00:56:24.258Z,366
2023-05-10T00:57:46.207Z,369
2023-05-10T00:58:24.083Z,365
2023-05-10T01:00:25.164Z,359
2023-05-10T01:01:24.186Z,361
2023-05-10T01:02:24.170Z,354
2023-05-10T01:03:24.434Z,364
2023-05-10T01:05:24.776Z,358
2023-05-10T01:06:23.924Z,367
2023-05-10T01:07:24.223Z,365
2023-05-10T01:08:24.205Z,367
2023-05-10T01:09:24.020Z,366
2023-05-10T01:10:24.169Z,364
2023-05-10T01:11:23.953Z,369
2023-05-10T01:12:24.227Z,364
2023-05-10T01:13:24.170Z,368
2023-05-10T01:14:24.111Z,356
2023-05-10T01:15:24.061Z,365
2023-05-10T01:17:24.178Z,367
2023-05-10T01:18:24.400Z,371
2023-05-10T01:19:24.009Z,369
2023-05-10T01:20:24.326Z,367
2023-05-10T01:21:24.067Z,377
2023-05-10T01:23:24.196Z,368
2023-05-10T01:24:24.467Z,372
2023-05-10T01:25:23.908Z,375
2023-05-10T01:26:24.120Z,377
2023-05-10T01:28:23.891Z,365
2023-05-10T01:29:23.791Z,355
2023-05-10T01:30:24.494Z,366
2023-05-10T01:31:23.935Z,370
2023-05-10T01:32:24.147Z,365
2023-05-10T01:33:24.096Z,363
2023-05-10T01:34:24.082Z,360
2023-05-10T01:35:24.674Z,359
2023-05-10T01:36:24.241Z,363
2023-05-10T01:37:24.083Z,360
2023-05-10T01:38:24.029Z,361
2023-05-10T01:39:23.941Z,363
2023-05-10T01:40:24.229Z,369
2023-05-10T01:41:24.185Z,378
2023-05-10T01:42:24.009Z,384
2023-05-10T01:43:24.086Z,371
2023-05-10T01:44:24.138Z,369
2023-05-10T01:45:24.548Z,357
2023-05-10T01:46:24.358Z,353
2023-05-10T01:47:24.735Z,366
2023-05-10T01:48:24.340Z,361
2023-05-10T01:49:24.666Z,366
2023-05-10T01:50:24.307Z,373
2023-05-10T01:51:24.360Z,370
2023-05-10T01:52:24.455Z,364
2023-05-10T01:53:23.918Z,369
2023-05-10T01:54:23.902Z,367
2023-05-10T01:55:23.942Z,360
2023-05-10T01:56:23.917Z,365
2023-05-10T01:57:24.126Z,366
2023-05-10T01:58:24.226Z,368
2023-05-10T01:59:24.371Z,363
2023-05-10T02:00:25.355Z,368
2023-05-10T02:01:24.235Z,375
2023-05-10T02:03:23.951Z,367
2023-05-10T02:05:23.991Z,360
2023-05-10T02:08:24.192Z,367
2023-05-10T02:09:23.913Z,371
2023-05-10T02:11:23.836Z,359
2023-05-10T02:12:24.212Z,356
2023-05-10T02:13:24.363Z,354
2023-05-10T02:14:24.530Z,369
2023-05-10T02:15:24.665Z,364
2023-05-10T02:16:24.621Z,363
2023-05-10T02:17:23.857Z,357
2023-05-10T02:18:24.133Z,366
2023-05-10T02:19:24.178Z,371
2023-05-10T02:20:25.016Z,363
2023-05-10T02:21:24.500Z,368
2023-05-10T02:23:24.261Z,348
2023-05-10T02:24:24.422Z,350
2023-05-10T02:25:24.828Z,360
2023-05-10T02:26:24.193Z,364
2023-05-10T02:27:24.118Z,359
2023-05-10T02:28:24.212Z,371
2023-05-10T02:29:24.289Z,369
2023-05-10T02:30:24.292Z,363
2023-05-10T02:31:24.439Z,358
2023-05-10T02:33:23.779Z,361
2023-05-10T02:34:23.889Z,364
2023-05-10T02:35:24.153Z,359
2023-05-10T02:36:24.205Z,366
2023-05-10T02:37:24.160Z,376
2023-05-10T02:38:24.196Z,369
2023-05-10T02:39:24.341Z,360
2023-05-10T02:40:26.210Z,358
2023-05-10T02:41:24.082Z,365
2023-05-10T02:42:24.075Z,375
2023-05-10T02:44:24.053Z,365
2023-05-10T02:45:24.391Z,364
2023-05-10T02:46:24.270Z,366
2023-05-10T02:47:24.391Z,357
2023-05-10T02:48:24.508Z,369
2023-05-10T02:50:24.691Z,370
2023-05-10T02:51:24.144Z,375
2023-05-10T02:52:24.221Z,374
2023-05-10T02:53:24.201Z,368
2023-05-10T02:55:24.353Z,369
2023-05-10T02:57:24.256Z,368
2023-05-10T02:58:24.380Z,372
2023-05-10T02:59:24.510Z,376
2023-05-10T03:01:23.848Z,372
2023-05-10T03:02:37.895Z,369
2023-05-10T03:04:24.460Z,364
2023-05-10T03:05:24.700Z,369
2023-05-10T03:06:23.630Z,363
2023-05-10T03:07:23.804Z,368
2023-05-10T03:08:23.986Z,361
2023-05-10T03:09:24.309Z,360
2023-05-10T03:10:24.129Z,369
2023-05-10T03:11:24.284Z,373
2023-05-10T03:12:24.399Z,377
2023-05-10T03:13:24.697Z,369
2023-05-10T03:14:23.934Z,365
2023-05-10T03:16:24.424Z,365
2023-05-10T03:17:24.127Z,369
2023-05-10T03:18:23.840Z,376
2023-05-10T03:19:23.562Z,369
2023-05-10T03:21:24.321Z,370
2023-05-10T03:22:24.191Z,371
2023-05-10T03:23:24.023Z,382
2023-05-10T03:24:24.165Z,383
2023-05-10T03:26:23.931Z,388
2023-05-10T03:27:23.806Z,378
2023-05-10T03:28:23.995Z,372
2023-05-10T03:29:24.214Z,377
2023-05-10T03:30:24.473Z,379
2023-05-10T03:31:24.576Z,382
2023-05-10T03:32:24.346Z,370
2023-05-10T03:33:24.450Z,372
2023-05-10T03:34:24.365Z,380
2023-05-10T03:35:24.622Z,388
2023-05-10T03:36:24.318Z,386
2023-05-10T03:37:23.977Z,381
2023-05-10T03:38:24.097Z,371
2023-05-10T03:39:23.859Z,375
2023-05-10T03:40:24.106Z,374
2023-05-10T03:42:24.241Z,375
2023-05-10T03:43:24.231Z,376
2023-05-10T03:44:24.358Z,375
2023-05-10T03:45:24.350Z,381
2023-05-10T03:47:24.349Z,370
2023-05-10T03:48:24.229Z,368
2023-05-10T03:49:24.219Z,378
2023-05-10T03:50:24.843Z,374
2023-05-10T03:51:24.355Z,378
2023-05-10T03:52:24.680Z,364
2023-05-10T03:53:24.323Z,372
2023-05-10T03:54:24.381Z,376
2023-05-10T03:55:24.540Z,368
2023-05-10T03:56:24.537Z,356
2023-05-10T03:57:24.122Z,353
2023-05-10T03:58:24.758Z,362
2023-05-10T03:59:24.099Z,366
2023-05-10T04:00:25.613Z,377
2023-05-10T04:01:23.801Z,375
2023-05-10T04:02:24.155Z,372
2023-05-10T04:04:24.295Z,369
2023-05-10T04:05:24.297Z,368
2023-05-10T04:06:24.590Z,369
2023-05-10T04:07:24.180Z,377
2023-05-10T04:08:24.530Z,381
2023-05-10T04:09:24.155Z,392
2023-05-10T04:10:24.808Z,380
2023-05-10T04:11:24.185Z,377
2023-05-10T04:12:24.375Z,373
2023-05-10T04:13:24.584Z,371
2023-05-10T04:14:23.958Z,364
2023-05-10T04:15:24.386Z,363
2023-05-10T04:16:24.562Z,365
2023-05-10T04:17:24.434Z,372
2023-05-10T04:18:24.067Z,369
2023-05-10T04:19:24.163Z,372
2023-05-10T04:21:24.122Z,378
2023-05-10T04:22:24.270Z,372
2023-05-10T04:23:24.507Z,382
2023-05-10T04:24:24.422Z,392
2023-05-10T04:25:24.598Z,382
2023-05-10T04:26:23.814Z,380
2023-05-10T04:27:23.841Z,377
2023-05-10T04:28:23.930Z,383
2023-05-10T04:29:24.177Z,384
2023-05-10T04:30:24.676Z,381
2023-05-10T04:31:24.042Z,366
2023-05-10T04:32:24.352Z,383
2023-05-10T04:34:24.490Z,368
2023-05-10T04:35:24.786Z,375
2023-05-10T04:36:24.215Z,379
2023-05-10T04:37:24.767Z,365
2023-05-10T04:38:24.420Z,363
2023-05-10T04:39:24.291Z,370
2023-05-10T04:40:24.477Z,373
2023-05-10T04:41:24.465Z,372
2023-05-10T04:42:24.504Z,375
2023-05-10T04:43:24.336Z,381
2023-05-10T04:44:24.739Z,379
2023-05-10T04:45:24.733Z,375
2023-05-10T04:46:24.407Z,371
2023-05-10T04:47:24.137Z,368
2023-05-10T04:48:24.224Z,371
2023-05-10T04:50:24.481Z,370
2023-05-10T04:51:24.569Z,379
2023-05-10T04:52:23.977Z,392
2023-05-10T04:53:24.639Z,397
2023-05-10T04:54:24.576Z,383
2023-05-10T04:55:24.700Z,374
2023-05-10T04:56:24.414Z,384
2023-05-10T04:57:24.867Z,376
2023-05-10T04:58:24.567Z,385
2023-05-10T04:59:24.723Z,389
2023-05-10T05:00:25.473Z,385
2023-05-10T05:02:24.902Z,380
2023-05-10T05:03:24.573Z,373
2023-05-10T05:04:24.239Z,374
2023-05-10T05:05:24.691Z,386
2023-05-10T05:06:24.236Z,390
2023-05-10T05:07:24.550Z,383
2023-05-10T05:08:24.216Z,371
2023-05-10T05:09:29.664Z,370
2023-05-10T05:10:24.356Z,376
2023-05-10T05:11:29.781Z,378
2023-05-10T05:12:24.273Z,377
2023-05-10T05:14:24.711Z,379
2023-05-10T05:15:32.633Z,382
2023-05-10T05:16:25.052Z,374
2023-05-10T05:17:24.780Z,371
2023-05-10T05:18:25.087Z,367
2023-05-10T05:19:32.731Z,370
2023-05-10T05:20:24.873Z,383
2023-05-10T05:21:24.528Z,379
2023-05-10T05:22:24.177Z,377
2023-05-10T05:23:38.380Z,368
2023-05-10T05:24:24.013Z,361
2023-05-10T05:25:24.218Z,365
2023-05-10T05:26:24.594Z,357
2023-05-10T05:27:23.945Z,359
2023-05-10T05:28:24.350Z,356
2023-05-10T05:29:24.754Z,360
2023-05-10T05:30:24.433Z,356
2023-05-10T05:31:24.119Z,347
2023-05-10T05:32:24.641Z,348
2023-05-10T05:33:24.156Z,351
2023-05-10T05:35:24.251Z,346
2023-05-10T05:36:24.628Z,350
2023-05-10T05:38:24.646Z,359
2023-05-10T05:40:24.805Z,358
2023-05-10T05:41:23.976Z,347
2023-05-10T05:42:24.446Z,353
2023-05-10T05:43:24.241Z,359
2023-05-10T05:45:24.592Z,357
2023-05-10T05:46:24.441Z,361
2023-05-10T05:47:24.207Z,367
2023-05-10T05:48:24.780Z,351
2023-05-10T05:49:46.693Z,365
2023-05-10T05:50:24.601Z,359
2023-05-10T05:51:24.392Z,360
2023-05-10T05:52:25.125Z,356
2023-05-10T05:53:25.179Z,352
2023-05-10T05:54:24.382Z,357
2023-05-10T05:55:46.601Z,353
2023-05-10T05:56:25.054Z,355
2023-05-10T05:57:24.559Z,357
2023-05-10T05:58:24.398Z,352
2023-05-10T05:59:25.090Z,353
2023-05-10T06:00:25.984Z,358
2023-05-10T06:01:24.549Z,360
2023-05-10T06:02:24.401Z,364
2023-05-10T06:03:24.719Z,359
2023-05-10T06:04:24.317Z,360
2023-05-10T06:05:24.845Z,358
2023-05-10T06:06:24.465Z,360
2023-05-10T06:07:24.820Z,361
2023-05-10T06:08:24.470Z,355
2023-05-10T06:09:24.472Z,359
2023-05-10T06:10:24.437Z,378
2023-05-10T06:11:24.512Z,380
2023-05-10T06:12:25.033Z,379
2023-05-10T06:13:24.641Z,360
2023-05-10T06:14:24.299Z,359
2023-05-10T06:15:25.311Z,351
2023-05-10T06:17:24.682Z,350
2023-05-10T06:18:24.887Z,347
2023-05-10T06:19:24.657Z,350
2023-05-10T06:20:24.808Z,358
2023-05-10T06:21:24.501Z,362
2023-05-10T06:22:24.690Z,359
2023-05-10T06:23:24.498Z,352
2023-05-10T06:24:24.264Z,345
2023-05-10T06:25:24.478Z,358
2023-05-10T06:26:24.491Z,367
2023-05-10T06:27:24.412Z,361
2023-05-10T06:28:24.302Z,362
2023-05-10T06:29:24.468Z,348
2023-05-10T06:31:24.568Z,359
2023-05-10T06:33:24.755Z,346
2023-05-10T06:34:24.416Z,354
2023-05-10T06:35:24.304Z,356
2023-05-10T06:36:24.354Z,346
2023-05-10T06:37:24.797Z,350
2023-05-10T06:38:24.606Z,357
2023-05-10T06:39:24.546Z,369
2023-05-10T06:40:24.335Z,362
2023-05-10T06:41:24.986Z,365
2023-05-10T06:42:24.567Z,355
2023-05-10T06:43:24.231Z,356
2023-05-10T06:44:24.745Z,355
2023-05-10T06:45:24.593Z,356
2023-05-10T06:46:24.425Z,357
2023-05-10T06:47:24.256Z,359
2023-05-10T06:48:24.266Z,353
2023-05-10T06:49:24.888Z,352
2023-05-10T06:50:24.863Z,349
2023-05-10T06:51:24.560Z,350
2023-05-10T06:52:24.543Z,355
2023-05-10T06:53:24.486Z,366
2023-05-10T06:54:24.160Z,352
2023-05-10T06:55:25.063Z,349
2023-05-10T06:56:24.618Z,343
2023-05-10T06:57:31.606Z,347
2023-05-10T06:58:24.411Z,356
2023-05-10T07:00:26.032Z,344
2023-05-10T07:01:25.050Z,340
2023-05-10T07:02:25.115Z,347
2023-05-10T07:03:24.969Z,345
2023-05-10T07:04:24.609Z,348
2023-05-10T07:05:24.718Z,355
2023-05-10T07:06:32.935Z,357
2023-05-10T07:07:24.432Z,359
2023-05-10T07:08:24.464Z,352
2023-05-10T07:09:24.393Z,348
2023-05-10T07:10:24.607Z,349
2023-05-10T07:11:24.366Z,350
2023-05-10T07:12:24.840Z,352
2023-05-10T07:13:24.592Z,349
2023-05-10T07:14:24.546Z,347
2023-05-10T07:15:24.937Z,339
2023-05-10T07:16:24.791Z,341
2023-05-10T07:17:24.808Z,346
2023-05-10T07:18:24.383Z,348
2023-05-10T07:20:24.561Z,345
2023-05-10T07:21:24.432Z,336
2023-05-10T07:22:24.399Z,333
2023-05-10T07:23:24.898Z,342
2023-05-10T07:24:24.541Z,352
2023-05-10T07:25:24.834Z,350
2023-05-10T07:26:24.693Z,342
2023-05-10T07:27:24.570Z,346
2023-05-10T07:28:24.295Z,352
2023-05-10T07:29:24.481Z,365
2023-05-10T07:31:24.965Z,355
2023-05-10T07:32:24.853Z,346
2023-05-10T07:33:24.625Z,339
2023-05-10T07:34:29.406Z,346
2023-05-10T07:35:24.481Z,352
2023-05-10T07:36:24.402Z,346
2023-05-10T07:37:24.495Z,353
2023-05-10T07:38:24.842Z,354
2023-05-10T07:40:24.836Z,356
2023-05-10T07:41:24.700Z,351
2023-05-10T07:42:32.523Z,341
2023-05-10T07:43:24.965Z,338
2023-05-10T07:44:24.516Z,340
2023-05-10T07:45:24.809Z,341
2023-05-10T07:46:24.749Z,338
2023-05-10T07:47:24.627Z,346
2023-05-10T07:48:24.681Z,339
2023-05-10T07:49:24.763Z,331
2023-05-10T07:50:24.744Z,325
2023-05-10T07:51:25.023Z,331
2023-05-10T07:52:24.669Z,341
2023-05-10T07:53:24.964Z,357
2023-05-10T07:54:24.414Z,345
2023-05-10T07:55:25.026Z,343
2023-05-10T07:56:24.520Z,346
2023-05-10T07:57:25.287Z,351
2023-05-10T07:58:24.434Z,359
2023-05-10T07:59:24.597Z,350
2023-05-10T08:00:25.314Z,346
2023-05-10T08:01:24.878Z,341
2023-05-10T08:02:24.537Z,331
2023-05-10T08:03:24.637Z,325
2023-05-10T08:04:24.862Z,318
2023-05-10T08:05:25.240Z,316
2023-05-10T08:06:24.324Z,322
2023-05-10T08:07:24.704Z,323
2023-05-10T08:08:24.515Z,333
2023-05-10T08:09:24.332Z,329
2023-05-10T08:10:24.420Z,320
2023-05-10T08:11:24.859Z,329
2023-05-10T08:12:24.781Z,334
2023-05-10T08:13:24.492Z,346
2023-05-10T08:14:24.274Z,332
2023-05-10T08:15:25.088Z,339
2023-05-10T08:17:24.860Z,337
2023-05-10T08:18:24.574Z,333
2023-05-10T08:19:24.412Z,330
2023-05-10T08:20:46.540Z,339
2023-05-10T08:21:24.915Z,344
2023-05-10T08:22:24.638Z,345
2023-05-10T08:23:24.940Z,347
2023-05-10T08:24:24.530Z,343
2023-05-10T08:25:24.525Z,339
2023-05-10T08:26:25.126Z,341
2023-05-10T08:27:24.953Z,339
2023-05-10T08:29:25.387Z,345
2023-05-10T08:30:25.165Z,348
2023-05-10T08:31:24.926Z,342
2023-05-10T08:32:24.573Z,337
2023-05-10T08:33:24.555Z,343
2023-05-10T08:34:25.090Z,344
2023-05-10T08:35:24.398Z,352
2023-05-10T08:36:24.464Z,359
2023-05-10T08:37:24.247Z,361
2023-05-10T08:38:24.767Z,345
2023-05-10T08:39:30.432Z,340
2023-05-10T08:40:24.802Z,343
2023-05-10T08:41:24.669Z,345
2023-05-10T08:42:24.457Z,342
2023-05-10T08:43:24.103Z,338
2023-05-10T08:45:25.005Z,337
2023-05-10T08:46:24.890Z,331
2023-05-10T08:47:24.334Z,327
2023-05-10T08:48:24.890Z,335
2023-05-10T08:49:24.840Z,334
2023-05-10T08:50:24.863Z,338
2023-05-10T08:51:24.935Z,344
2023-05-10T08:52:24.411Z,341
2023-05-10T08:53:24.191Z,340
2023-05-10T08:54:24.863Z,350
2023-05-10T08:55:24.851Z,341
2023-05-10T08:56:24.743Z,347
2023-05-10T08:57:24.403Z,354
2023-05-10T08:58:24.349Z,347
2023-05-10T08:59:25.469Z,351
2023-05-10T09:00:25.784Z,342
2023-05-10T09:01:25.031Z,343
2023-05-10T09:02:25.044Z,347
2023-05-10T09:03:25.021Z,342
2023-05-10T09:04:24.716Z,350
2023-05-10T09:05:25.032Z,352
2023-05-10T09:06:24.772Z,351
2023-05-10T09:07:24.671Z,348
2023-05-10T09:08:24.505Z,343
2023-05-10T09:09:24.290Z,340
2023-05-10T09:11:30.375Z,339
2023-05-10T09:12:24.725Z,341
2023-05-10T09:13:24.923Z,329
2023-05-10T09:14:24.678Z,323
2023-05-10T09:15:25.006Z,333
2023-05-10T09:16:25.077Z,327
2023-05-10T09:17:24.638Z,323
2023-05-10T09:18:27.297Z,330
2023-05-10T09:19:24.576Z,323
2023-05-10T09:20:24.739Z,333
2023-05-10T09:21:24.946Z,334
2023-05-10T09:22:24.957Z,330
2023-05-10T09:23:24.905Z,335
2023-05-10T09:24:24.981Z,346
2023-05-10T09:25:24.681Z,339
2023-05-10T09:26:24.578Z,336
2023-05-10T09:27:24.330Z,337
2023-05-10T09:28:24.695Z,336
2023-05-10T09:29:24.982Z,327
2023-05-10T09:30:25.217Z,336
2023-05-10T09:31:24.886Z,339
2023-05-10T09:32:24.772Z,346
2023-05-10T09:33:25.052Z,339
2023-05-10T09:34:24.594Z,346
2023-05-10T09:37:24.806Z,348
2023-05-10T09:38:24.623Z,336
2023-05-10T09:39:24.814Z,343
2023-05-10T09:41:24.921Z,346
2023-05-10T09:42:24.748Z,344
2023-05-10T09:43:24.550Z,338
2023-05-10T09:45:24.712Z,334
2023-05-10T09:46:24.930Z,341
2023-05-10T09:47:24.959Z,333
2023-05-10T09:48:25.109Z,330
2023-05-10T09:49:24.189Z,343
2023-05-10T09:50:25.014Z,341
2023-05-10T09:51:24.765Z,337
2023-05-10T09:52:24.464Z,339
2023-05-10T09:53:24.706Z,329
2023-05-10T09:54:24.990Z,332
2023-05-10T09:55:29.978Z,334
2023-05-10T09:56:24.700Z,331
2023-05-10T09:57:24.385Z,339
2023-05-10T09:58:24.503Z,334
2023-05-10T09:59:29.796Z,331
2023-05-10T10:00:25.804Z,337
2023-05-10T10:01:29.745Z,340
2023-05-10T10:02:25.095Z,341
2023-05-10T10:03:24.814Z,346
2023-05-10T10:04:24.791Z,332
2023-05-10T10:05:25.334Z,336
2023-05-10T10:06:30.012Z,342
2023-05-10T10:07:32.597Z,344
2023-05-10T10:08:24.482Z,349
2023-05-10T10:09:24.411Z,337
2023-05-10T10:10:24.497Z,332
2023-05-10T10:11:24.426Z,331
2023-05-10T10:12:24.357Z,339
2023-05-10T10:13:24.276Z,341
2023-05-10T10:14:24.856Z,330
2023-05-10T10:16:24.840Z,335
2023-05-10T10:17:38.962Z,337
2023-05-10T10:18:24.577Z,347
2023-05-10T10:19:38.679Z,349
2023-05-10T10:20:24.532Z,331
2023-05-10T10:21:24.223Z,329
2023-05-10T10:22:24.755Z,338
2023-05-10T10:23:38.444Z,339
2023-05-10T10:24:24.587Z,341
2023-05-10T10:25:24.612Z,337
2023-05-10T10:26:24.323Z,331
2023-05-10T10:27:38.775Z,340
2023-05-10T10:28:25.967Z,335
2023-05-10T10:29:24.504Z,321
2023-05-10T10:30:24.793Z,324
2023-05-10T10:31:43.752Z,327
2023-05-10T10:33:44.818Z,338
2023-05-10T10:34:24.448Z,339
2023-05-10T10:35:25.299Z,336
2023-05-10T10:36:24.439Z,330
2023-05-10T10:37:24.975Z,329
2023-05-10T10:38:25.001Z,332
2023-05-10T10:40:24.532Z,341
2023-05-10T10:41:24.807Z,332
2023-05-10T10:42:24.825Z,326
2023-05-10T10:43:24.642Z,333
2023-05-10T10:44:24.418Z,337
2023-05-10T10:45:24.626Z,329
2023-05-10T10:46:24.314Z,325
2023-05-10T10:47:25.163Z,321
2023-05-10T10:48:25.087Z,327
2023-05-10T10:49:25.136Z,320
2023-05-10T10:50:25.221Z,321
2023-05-10T10:51:25.266Z,323
2023-05-10T10:52:24.277Z,328
2023-05-10T10:53:25.142Z,343
2023-05-10T10:54:24.140Z,341
2023-05-10T10:55:25.570Z,320
2023-05-10T10:56:24.684Z,330
2023-05-10T10:58:29.239Z,323
2023-05-10T11:00:30.015Z,325
2023-05-10T11:01:25.355Z,318
2023-05-10T11:03:24.604Z,326
2023-05-10T11:04:24.801Z,333
2023-05-10T11:05:25.142Z,326
2023-05-10T11:06:25.295Z,327
2023-05-10T11:08:29.728Z,339
2023-05-10T11:09:24.751Z,336
2023-05-10T11:10:24.785Z,338
2023-05-10T11:11:24.860Z,339
2023-05-10T11:13:25.032Z,331
2023-05-10T11:14:24.939Z,324
2023-05-10T11:15:24.995Z,331
2023-05-10T11:16:24.928Z,333
2023-05-10T11:18:24.010Z,319
2023-05-10T11:19:24.790Z,336
2023-05-10T11:20:24.760Z,333
2023-05-10T11:21:24.641Z,342
2023-05-10T11:22:24.177Z,345
2023-05-10T11:23:24.840Z,342
2023-05-10T11:24:25.107Z,337
2023-05-10T11:25:25.493Z,331
2023-05-10T11:26:24.859Z,329
2023-05-10T11:27:25.145Z,323
2023-05-10T11:28:25.196Z,328
2023-05-10T11:30:24.682Z,319
2023-05-10T11:31:24.659Z,311
2023-05-10T11:32:24.814Z,301
2023-05-10T11:34:24.334Z,309
2023-05-10T11:35:24.694Z,316
2023-05-10T11:36:24.678Z,319
2023-05-10T11:37:24.370Z,333
2023-05-10T11:38:24.522Z,343
2023-05-10T11:39:24.845Z,338
2023-05-10T11:40:24.717Z,329
2023-05-10T11:41:24.563Z,321
2023-05-10T11:42:24.739Z,319
2023-05-10T11:43:24.656Z,332
2023-05-10T11:44:24.654Z,333
2023-05-10T11:45:24.756Z,340
2023-05-10T11:47:24.799Z,331
2023-05-10T11:48:24.785Z,327
2023-05-10T11:49:24.684Z,329
2023-05-10T11:50:24.995Z,323
2023-05-10T11:51:25.210Z,335
2023-05-10T11:52:24.741Z,339
2023-05-10T11:53:25.933Z,328
2023-05-10T11:54:25.236Z,322
2023-05-10T11:55:24.455Z,330
2023-05-10T11:56:24.597Z,335
2023-05-10T11:57:25.130Z,324
2023-05-10T11:58:25.188Z,322
2023-05-10T11:59:24.719Z,320
2023-05-10T12:00:25.485Z,316
2023-05-10T12:01:24.584Z,327
2023-05-10T12:02:24.516Z,324
2023-05-10T12:03:24.753Z,321
2023-05-10T12:04:24.810Z,319
2023-05-10T12:05:24.924Z,322
2023-05-10T12:06:24.398Z,319
2023-05-10T12:07:24.519Z,330
2023-05-10T12:08:24.359Z,331
2023-05-10T12:09:39.628Z,326
2023-05-10T12:10:24.615Z,330
2023-05-10T12:11:24.434Z,339
2023-05-10T12:12:24.565Z,334
2023-05-10T12:14:25.046Z,336
2023-05-10T12:15:25.140Z,338
2023-05-10T12:16:25.278Z,332
2023-05-10T12:17:24.544Z,328
2023-05-10T12:18:24.804Z,330
2023-05-10T12:19:24.909Z,316
2023-05-10T12:20:25.565Z,322
2023-05-10T12:21:24.943Z,329
2023-05-10T12:22:24.788Z,334
2023-05-10T12:23:24.671Z,322
2023-05-10T12:24:24.561Z,329
2023-05-10T12:25:24.346Z,324
2023-05-10T12:26:25.031Z,338
2023-05-10T12:27:24.950Z,341
2023-05-10T12:28:24.941Z,332
2023-05-10T12:29:24.912Z,330
2023-05-10T12:30:25.209Z,325
2023-05-10T12:31:24.534Z,324
2023-05-10T12:32:32.375Z,322
2023-05-10T12:33:24.389Z,313
2023-05-10T12:35:24.523Z,314
2023-05-10T12:36:32.635Z,321
2023-05-10T12:37:24.481Z,328
2023-05-10T12:38:38.500Z,326
2023-05-10T12:39:24.357Z,337
2023-05-10T12:40:38.913Z,340
2023-05-10T12:41:24.975Z,332
2023-05-10T12:42:38.616Z,319
2023-05-10T12:43:24.507Z,320
2023-05-10T12:44:38.358Z,317
2023-05-10T12:46:25.266Z,309
2023-05-10T12:47:24.820Z,318
2023-05-10T12:48:25.023Z,312
2023-05-10T12:49:25.025Z,315
2023-05-10T12:50:39.283Z,327
2023-05-10T12:51:25.305Z,324
2023-05-10T12:52:25.187Z,325
2023-05-10T12:53:25.407Z,321
2023-05-10T12:54:24.810Z,311
2023-05-10T12:55:24.915Z,319
2023-05-10T12:56:24.812Z,320
2023-05-10T12:57:24.874Z,311
2023-05-10T12:58:35.133Z,315
2023-05-10T12:59:24.711Z,321
2023-05-10T13:00:25.498Z,322
2023-05-10T13:01:24.687Z,324
2023-05-10T13:02:24.769Z,333
2023-05-10T13:03:24.836Z,331
2023-05-10T13:04:24.709Z,325
2023-05-10T13:05:24.982Z,323
2023-05-10T13:06:24.993Z,320
2023-05-10T13:07:24.499Z,321
2023-05-10T13:08:46.581Z,325
2023-05-10T13:09:24.540Z,324
2023-05-10T13:10:24.803Z,327
2023-05-10T13:11:25.018Z,319
2023-05-10T13:12:24.988Z,316
2023-05-10T13:13:24.933Z,322
2023-05-10T13:14:24.753Z,328
2023-05-10T13:16:24.516Z,326
2023-05-10T13:17:24.498Z,321
2023-05-10T13:19:24.508Z,323
2023-05-10T13:20:24.717Z,329
2023-05-10T13:21:24.709Z,333
2023-05-10T13:22:36.335Z,331
2023-05-10T13:23:24.555Z,327
2023-05-10T13:24:24.564Z,326
2023-05-10T13:25:24.561Z,323
2023-05-10T13:26:24.519Z,329
2023-05-10T13:27:24.963Z,325
2023-05-10T13:28:24.692Z,340
2023-05-10T13:29:24.586Z,333
2023-05-10T13:30:24.814Z,337
2023-05-10T13:32:24.700Z,323
2023-05-10T13:33:24.992Z,317
2023-05-10T13:34:25.191Z,325
2023-05-10T13:35:24.554Z,315
2023-05-10T13:38:24.688Z,324
2023-05-10T13:39:24.751Z,337
2023-05-10T13:40:25.017Z,338
2023-05-10T13:41:24.978Z,336
2023-05-10T13:43:29.712Z,320
2023-05-10T13:44:24.598Z,328
2023-05-10T13:45:24.669Z,334
2023-05-10T13:47:25.211Z,338
2023-05-10T13:48:24.792Z,326
2023-05-10T13:49:25.177Z,333
2023-05-10T13:50:24.854Z,334
2023-05-10T13:51:24.720Z,324
2023-05-10T13:52:24.315Z,318
2023-05-10T13:53:25.147Z,313
2023-05-10T13:54:25.144Z,316
2023-05-10T13:55:24.482Z,319
2023-05-10T13:56:24.424Z,318
2023-05-10T13:57:24.453Z,324
2023-05-10T13:58:24.605Z,316
2023-05-10T13:59:24.710Z,319
2023-05-10T14:00:26.017Z,336
2023-05-10T14:01:25.246Z,335
2023-05-10T14:02:24.774Z,333
2023-05-10T14:03:24.847Z,322
2023-05-10T14:04:24.919Z,326
2023-05-10T14:05:26.225Z,331
2023-05-10T14:06:24.638Z,316
2023-05-10T14:07:24.840Z,322
2023-05-10T14:08:25.016Z,323
2023-05-10T14:10:25.355Z,321
2023-05-10T14:11:24.772Z,328
2023-05-10T14:12:24.895Z,325
2023-05-10T14:13:24.529Z,318
2023-05-10T14:14:24.347Z,324
2023-05-10T14:15:25.804Z,322
2023-05-10T14:16:25.058Z,312
2023-05-10T14:17:25.111Z,318
2023-05-10T14:18:25.547Z,322
2023-05-10T14:20:25.205Z,314
2023-05-10T14:21:24.914Z,313
2023-05-10T14:22:24.999Z,312
2023-05-10T14:23:24.776Z,321
2023-05-10T14:24:24.556Z,335
2023-05-10T14:25:24.569Z,328
2023-05-10T14:27:24.918Z,333
2023-05-10T14:28:24.986Z,337
2023-05-10T14:29:24.989Z,335
2023-05-10T14:30:25.267Z,327
2023-05-10T14:31:25.353Z,320
2023-05-10T14:32:24.548Z,321
2023-05-10T14:33:24.665Z,320
2023-05-10T14:34:24.757Z,309
2023-05-10T14:35:25.270Z,319
2023-05-10T14:36:24.270Z,322
2023-05-10T14:37:24.869Z,323
2023-05-10T14:38:24.872Z,328
2023-05-10T14:39:25.034Z,334
2023-05-10T14:40:25.131Z,331
2023-05-10T14:42:24.743Z,327
2023-05-10T14:43:24.933Z,323
2023-05-10T14:44:24.702Z,318
2023-05-10T14:45:24.970Z,323
2023-05-10T14:46:25.410Z,318
2023-05-10T14:47:25.056Z,330
2023-05-10T14:48:24.569Z,333
2023-05-10T14:49:29.646Z,325
2023-05-10T14:51:24.954Z,318
2023-05-10T14:52:24.767Z,332
2023-05-10T14:53:25.025Z,327
2023-05-10T14:54:25.120Z,323
2023-05-10T14:55:25.331Z,331
2023-05-10T14:56:25.307Z,330
2023-05-10T14:57:32.710Z,333
2023-05-10T14:58:24.946Z,329
2023-05-10T14:59:25.259Z,335
2023-05-10T15:00:25.216Z,329
2023-05-10T15:01:32.917Z,335
2023-05-10T15:03:25.111Z,327
2023-05-10T15:04:26.517Z,315
2023-05-10T15:05:38.807Z,334
2023-05-10T15:06:24.939Z,320
2023-05-10T15:07:24.979Z,322